Time;durP1;ratioP1;P1;durP2;ratioP2;P2;SDS_P1;SDS_P2;PMS_P1;PMS_P2;Temp;Humidity;BMP_temperature;BMP_pressure;BME280_temperature;BME280_humidity;BME280_pressure;Samples;Min_cycle;Max_cycle;Signal;HPM_P1;HPM_P2
2023/05/06 00:00:32;;;;;;;0.75;0.60;;;;;;;;;;10189433;28;20048;-84
2023/05/06 00:05:36;;;;;;;0.80;0.70;;;;;;;;;;10242555;28;20044;-84
2023/05/06 00:10:39;;;;;;;1.38;0.63;;;;;;;;;;10257820;28;20051;-84
2023/05/06 00:15:44;;;;;;;1.40;0.60;;;;;;;;;;10175063;28;20048;-86
2023/05/06 00:20:47;;;;;;;0.80;0.50;;;;;;;;;;10176660;28;20063;-84
2023/05/06 00:25:52;;;;;;;1.15;0.50;;;;;;;;;;10234174;28;20067;-84
2023/05/06 00:30:57;;;;;;;1.30;0.50;;;;;;;;;;10244209;28;20753;-87
2023/05/06 00:36:00;;;;;;;1.48;0.70;;;;;;;;;;10247461;28;20075;-84
2023/05/06 00:41:04;;;;;;;1.17;0.60;;;;;;;;;;10235490;28;20582;-83
2023/05/06 00:46:10;;;;;;;1.85;0.63;;;;;;;;;;10249302;28;20052;-85
2023/05/06 00:51:13;;;;;;;1.20;0.60;;;;;;;;;;10241610;28;20414;-88
2023/05/06 00:56:17;;;;;;;1.80;0.68;;;;;;;;;;10239051;28;20060;-84
2023/05/06 01:01:23;;;;;;;1.73;0.70;;;;;;;;;;10256307;28;20489;-85
2023/05/06 01:06:35;;;;;;;0.95;0.73;;;;;;;;;;10234089;28;20052;-87
2023/05/06 01:11:52;;;;;;;0.80;0.60;;;;;;;;;;10232705;28;20545;-87
2023/05/06 01:17:03;;;;;;;1.67;0.73;;;;;;;;;;10229572;28;20052;-86
2023/05/06 01:22:07;;;;;;;1.17;0.75;;;;;;;;;;10168039;28;20079;-85
2023/05/06 01:27:13;;;;;;;1.45;0.95;;;;;;;;;;10246777;28;20126;-84
2023/05/06 01:32:35;;;;;;;1.05;0.90;;;;;;;;;;10269016;28;20060;-87
2023/05/06 01:37:46;;;;;;;1.88;0.98;;;;;;;;;;10230490;28;20086;-84
2023/05/06 01:42:50;;;;;;;1.17;0.85;;;;;;;;;;10237753;28;20071;-84
2023/05/06 01:47:54;;;;;;;1.45;0.60;;;;;;;;;;10249223;28;20052;-84
2023/05/06 01:52:59;;;;;;;0.82;0.73;;;;;;;;;;10248258;28;20051;-86
2023/05/06 01:58:04;;;;;;;0.90;0.80;;;;;;;;;;10229831;28;20513;-85
2023/05/06 02:03:08;;;;;;;1.50;0.70;;;;;;;;;;10252215;28;20052;-84
2023/05/06 02:08:11;;;;;;;0.68;0.68;;;;;;;;;;10239704;28;20052;-85
2023/05/06 02:13:18;;;;;;;2.83;1.23;;;;;;;;;;10167177;28;20140;-87
2023/05/06 02:18:24;;;;;;;1.27;0.93;;;;;;;;;;10228217;28;20135;-86
2023/05/06 02:23:28;;;;;;;1.33;0.60;;;;;;;;;;10244430;28;20044;-86
2023/05/06 02:28:32;;;;;;;1.02;0.75;;;;;;;;;;10243596;28;20055;-85
2023/05/06 02:33:35;;;;;;;0.73;0.70;;;;;;;;;;10240273;28;20056;-85
2023/05/06 02:38:39;;;;;;;1.33;0.90;;;;;;;;;;10176232;28;20044;-87
2023/05/06 02:43:44;;;;;;;1.98;0.80;;;;;;;;;;10244764;28;20087;-86
2023/05/06 02:48:47;;;;;;;1.63;1.00;;;;;;;;;;10176391;28;20052;-87
2023/05/06 02:53:51;;;;;;;1.50;0.73;;;;;;;;;;10254000;28;20597;-85
2023/05/06 02:58:56;;;;;;;1.55;0.93;;;;;;;;;;10235296;28;20048;-86
2023/05/06 03:03:59;;;;;;;3.80;0.70;;;;;;;;;;10251240;28;20052;-87
2023/05/06 03:09:03;;;;;;;1.85;0.75;;;;;;;;;;10235087;28;20448;-87
2023/05/06 03:14:09;;;;;;;1.40;0.80;;;;;;;;;;10246001;28;20272;-86
2023/05/06 03:19:13;;;;;;;1.60;0.80;;;;;;;;;;10232325;28;20052;-85
2023/05/06 03:24:19;;;;;;;;;;;;;;;;;;10248907;28;20585;-85
2023/05/06 03:29:29;;;;;;;2.67;0.73;;;;;;;;;;10244115;28;20127;-86
2023/05/06 03:34:37;;;;;;;1.08;0.77;;;;;;;;;;10249027;28;20052;-86
2023/05/06 03:39:41;;;;;;;0.75;0.70;;;;;;;;;;10250457;28;20075;-85
2023/05/06 03:44:47;;;;;;;0.70;0.70;;;;;;;;;;10241782;28;20078;-88
2023/05/06 03:49:51;;;;;;;0.77;0.77;;;;;;;;;;10233832;28;20134;-88
2023/05/06 03:54:55;;;;;;;1.73;1.02;;;;;;;;;;10269210;28;20054;-85
2023/05/06 04:00:00;;;;;;;1.45;1.02;;;;;;;;;;10244563;28;20121;-85
2023/05/06 04:05:07;;;;;;;1.38;0.98;;;;;;;;;;10228094;28;20055;-85
2023/05/06 04:10:11;;;;;;;2.13;0.98;;;;;;;;;;10233982;28;20056;-88
2023/05/06 04:15:18;;;;;;;0.80;0.80;;;;;;;;;;10237085;28;20107;-85
2023/05/06 04:20:23;;;;;;;0.80;0.80;;;;;;;;;;10244809;28;20376;-87
2023/05/06 04:25:28;;;;;;;1.00;0.90;;;;;;;;;;10252214;28;20107;-87
2023/05/06 04:30:33;;;;;;;2.55;0.90;;;;;;;;;;10238429;28;20056;-85
2023/05/06 04:35:37;;;;;;;1.07;0.80;;;;;;;;;;10245731;28;20739;-86
2023/05/06 04:40:41;;;;;;;1.42;1.10;;;;;;;;;;10247252;28;20044;-86
2023/05/06 04:45:51;;;;;;;1.42;1.00;;;;;;;;;;10237374;28;20461;-86
2023/05/06 04:50:59;;;;;;;1.88;1.08;;;;;;;;;;10237276;28;20051;-84
2023/05/06 04:56:03;;;;;;;3.03;1.10;;;;;;;;;;10249297;28;20127;-84
2023/05/06 05:01:11;;;;;;;1.25;1.10;;;;;;;;;;10247327;28;20059;-82
2023/05/06 05:06:14;;;;;;;1.80;0.93;;;;;;;;;;10260066;28;20084;-83
2023/05/06 05:11:19;;;;;;;1.50;1.33;;;;;;;;;;10252187;28;20075;-83
2023/05/06 05:16:29;;;;;;;2.10;1.40;;;;;;;;;;10237204;28;20074;-83
2023/05/06 05:21:37;;;;;;;1.20;1.10;;;;;;;;;;10237810;28;20126;-83
2023/05/06 05:26:42;;;;;;;3.33;1.35;;;;;;;;;;10238293;28;20041;-83
2023/05/06 05:31:47;;;;;;;1.38;1.27;;;;;;;;;;10248087;28;20042;-83
2023/05/06 05:36:51;;;;;;;2.05;1.30;;;;;;;;;;10235390;28;20058;-83
2023/05/06 05:41:56;;;;;;;1.33;0.85;;;;;;;;;;10240476;28;20043;-84
2023/05/06 05:47:02;;;;;;;1.08;0.98;;;;;;;;;;10235683;28;20047;-83
2023/05/06 05:52:07;;;;;;;1.05;0.95;;;;;;;;;;10233935;28;20051;-83
2023/05/06 05:57:11;;;;;;;1.65;1.02;;;;;;;;;;10252868;28;20047;-83
2023/05/06 06:02:16;;;;;;;1.20;1.08;;;;;;;;;;10231281;28;20067;-83
2023/05/06 06:07:20;;;;;;;1.00;0.83;;;;;;;;;;10227862;28;20048;-83
2023/05/06 06:12:23;;;;;;;1.20;0.90;;;;;;;;;;10236581;28;20071;-83
2023/05/06 06:17:28;;;;;;;0.90;0.70;;;;;;;;;;10239737;28;20055;-83
2023/05/06 06:22:34;;;;;;;1.73;0.73;;;;;;;;;;10168203;28;20047;-82
2023/05/06 06:27:40;;;;;;;0.68;0.68;;;;;;;;;;10255478;28;20047;-83
2023/05/06 06:32:50;;;;;;;0.98;0.50;;;;;;;;;;10235803;28;20040;-83
2023/05/06 06:37:54;;;;;;;2.15;0.60;;;;;;;;;;10242456;28;20122;-84
2023/05/06 06:42:58;;;;;;;0.35;0.35;;;;;;;;;;10237884;28;20052;-82
2023/05/06 06:48:21;;;;;;;0.47;0.47;;;;;;;;;;10180358;28;20577;-83
2023/05/06 06:53:27;;;;;;;0.70;0.45;;;;;;;;;;10184342;28;20573;-83
2023/05/06 06:58:32;;;;;;;0.88;0.70;;;;;;;;;;10240073;28;20052;-84
2023/05/06 07:03:37;;;;;;;0.77;0.47;;;;;;;;;;10235941;28;20055;-84
2023/05/06 07:08:41;;;;;;;1.00;0.50;;;;;;;;;;10242816;28;20048;-84
2023/05/06 07:13:44;;;;;;;0.40;0.40;;;;;;;;;;10239683;28;20055;-84
2023/05/06 07:18:49;;;;;;;1.75;0.70;;;;;;;;;;10156608;28;20059;-84
2023/05/06 07:23:58;;;;;;;1.17;0.60;;;;;;;;;;10176943;28;20062;-84
2023/05/06 07:29:03;;;;;;;0.68;0.45;;;;;;;;;;10221123;28;20430;-84
2023/05/06 07:34:07;;;;;;;0.55;0.40;;;;;;;;;;10238188;28;20096;-85
2023/05/06 07:39:12;;;;;;;0.35;0.35;;;;;;;;;;10249801;28;20051;-84
2023/05/06 07:44:15;;;;;;;0.55;0.30;;;;;;;;;;10166835;28;20048;-84
2023/05/06 07:49:20;;;;;;;0.52;0.28;;;;;;;;;;10296394;28;20400;-84
2023/05/06 07:54:23;;;;;;;0.20;0.20;;;;;;;;;;10232436;28;20060;-84
2023/05/06 07:59:27;;;;;;;0.10;0.10;;;;;;;;;;10258223;28;20060;-84
2023/05/06 08:04:31;;;;;;;0.40;0.20;;;;;;;;;;10231301;28;20056;-84
2023/05/06 08:09:35;;;;;;;0.10;0.10;;;;;;;;;;10229752;28;20051;-84
2023/05/06 08:14:38;;;;;;;0.43;0.35;;;;;;;;;;10219314;28;20051;-85
2023/05/06 08:19:43;;;;;;;0.40;0.20;;;;;;;;;;10163982;28;20052;-84
2023/05/06 08:24:46;;;;;;;0.10;0.10;;;;;;;;;;10224323;28;20077;-84
2023/05/06 08:29:50;;;;;;;0.28;0.25;;;;;;;;;;10225146;28;20513;-85
2023/05/06 08:35:29;;;;;;;2.20;0.80;;;;;;;;;;10164818;28;20055;-84
2023/05/06 08:40:34;;;;;;;0.52;0.20;;;;;;;;;;10169040;28;20055;-84
2023/05/06 08:45:37;;;;;;;0.20;0.20;;;;;;;;;;10229660;28;20090;-84
2023/05/06 08:50:43;;;;;;;0.38;0.20;;;;;;;;;;10239311;28;20130;-84
2023/05/06 08:55:49;;;;;;;0.65;0.35;;;;;;;;;;10159432;28;20040;-85
2023/05/06 09:00:52;;;;;;;0.52;0.30;;;;;;;;;;10252559;28;20058;-84
2023/05/06 09:05:58;;;;;;;1.27;0.30;;;;;;;;;;10182037;28;20063;-85
2023/05/06 09:11:01;;;;;;;0.50;0.10;;;;;;;;;;10239200;28;20056;-84
2023/05/06 09:16:05;;;;;;;0.20;0.10;;;;;;;;;;10239112;28;20048;-84
2023/05/06 09:21:10;;;;;;;0.93;0.10;;;;;;;;;;10233376;28;20055;-84
2023/05/06 09:26:13;;;;;;;0.20;0.20;;;;;;;;;;10229471;28;20064;-84
2023/05/06 09:31:17;;;;;;;0.17;0.17;;;;;;;;;;10147119;28;20048;-84
2023/05/06 09:36:26;;;;;;;0.10;0.10;;;;;;;;;;10160082;28;20069;-84
2023/05/06 09:41:30;;;;;;;0.20;0.10;;;;;;;;;;10234891;28;20571;-84
2023/05/06 09:46:33;;;;;;;0.17;0.17;;;;;;;;;;10178846;28;20048;-84
2023/05/06 09:51:40;;;;;;;0.17;0.10;;;;;;;;;;10238856;28;20052;-84
2023/05/06 09:56:45;;;;;;;0.10;0.10;;;;;;;;;;10222605;28;20048;-84
2023/05/06 10:01:50;;;;;;;0.10;0.10;;;;;;;;;;10222281;28;20060;-84
2023/05/06 10:06:56;;;;;;;0.10;0.10;;;;;;;;;;10239897;28;20055;-84
2023/05/06 10:12:00;;;;;;;1.08;0.30;;;;;;;;;;10245327;28;20059;-84
2023/05/06 10:17:07;;;;;;;0.55;0.10;;;;;;;;;;10163973;28;20448;-84
2023/05/06 10:22:19;;;;;;;0.20;0.10;;;;;;;;;;10234588;28;20052;-84
2023/05/06 10:27:25;;;;;;;1.58;0.13;;;;;;;;;;10230193;28;20056;-84
2023/05/06 10:32:32;;;;;;;0.00;0.00;;;;;;;;;;10232352;28;20059;-86
2023/05/06 10:37:38;;;;;;;0.10;0.10;;;;;;;;;;10242445;28;20048;-84
2023/05/06 10:42:41;;;;;;;0.00;0.00;;;;;;;;;;10232272;28;20043;-84
2023/05/06 10:48:07;;;;;;;1.25;0.20;;;;;;;;;;10236969;28;20052;-84
2023/05/06 10:53:12;;;;;;;0.10;0.10;;;;;;;;;;10243357;28;20062;-84
2023/05/06 10:58:19;;;;;;;0.32;0.20;;;;;;;;;;10238482;28;20059;-84
2023/05/06 11:10:34;;;;;;;0.17;0.03;;;;;;;;;;10199249;23;20057;-84
2023/05/06 11:15:42;;;;;;;0.50;0.30;;;;;;;;;;10161021;28;20048;-87
2023/05/06 11:20:45;;;;;;;0.50;0.20;;;;;;;;;;10116432;28;20527;-83
2023/05/06 11:25:55;;;;;;;0.60;0.22;;;;;;;;;;10193750;28;20321;-83
2023/05/06 11:30:59;;;;;;;0.10;0.10;;;;;;;;;;10113422;28;20593;-83
2023/05/06 11:36:04;;;;;;;0.85;0.30;;;;;;;;;;10172246;28;20045;-83
2023/05/06 11:41:08;;;;;;;1.10;0.30;;;;;;;;;;10177172;28;20044;-86
2023/05/06 11:46:12;;;;;;;0.20;0.20;;;;;;;;;;10178606;28;20420;-85
2023/05/06 11:51:15;;;;;;;1.02;0.35;;;;;;;;;;10172822;28;20422;-84
2023/05/06 11:56:20;;;;;;;0.60;0.30;;;;;;;;;;10160857;28;20056;-84
2023/05/06 12:01:23;;;;;;;0.60;0.30;;;;;;;;;;10171830;28;20060;-83
2023/05/06 12:06:34;;;;;;;0.85;0.20;;;;;;;;;;10183182;28;20059;-83
2023/05/06 12:11:40;;;;;;;0.20;0.13;;;;;;;;;;10181867;28;20060;-83
2023/05/06 12:16:44;;;;;;;0.50;0.17;;;;;;;;;;10075281;28;20061;-85
2023/05/06 12:21:47;;;;;;;0.50;0.30;;;;;;;;;;10090773;28;20140;-82
2023/05/06 12:26:55;;;;;;;0.08;0.08;;;;;;;;;;10106398;28;20050;-81
2023/05/06 12:32:09;;;;;;;1.88;0.50;;;;;;;;;;10172752;28;20052;-81
2023/05/06 12:37:23;;;;;;;0.68;0.30;;;;;;;;;;10167506;28;20044;-81
2023/05/06 12:42:28;;;;;;;0.60;0.17;;;;;;;;;;10172453;28;20061;-81
2023/05/06 12:47:31;;;;;;;0.80;0.20;;;;;;;;;;10152966;28;20048;-81
2023/05/06 12:52:43;;;;;;;0.32;0.10;;;;;;;;;;10178597;28;20057;-81
2023/05/06 12:57:48;;;;;;;0.28;0.10;;;;;;;;;;10119194;28;20041;-81
2023/05/06 13:02:51;;;;;;;0.30;0.10;;;;;;;;;;10168068;28;20104;-84
2023/05/06 13:07:55;;;;;;;0.20;0.10;;;;;;;;;;10118269;28;20131;-82
2023/05/06 13:12:59;;;;;;;0.30;0.20;;;;;;;;;;10116566;28;20057;-84
2023/05/06 13:18:03;;;;;;;0.10;0.05;;;;;;;;;;10176852;28;20462;-83
2023/05/06 13:23:06;;;;;;;0.05;0.00;;;;;;;;;;10175903;28;20057;-87
2023/05/06 13:28:11;;;;;;;0.47;0.40;;;;;;;;;;10175620;28;20149;-83
2023/05/06 13:33:15;;;;;;;0.30;0.20;;;;;;;;;;10178310;28;20136;-84
2023/05/06 13:38:18;;;;;;;0.70;0.40;;;;;;;;;;10173970;28;20052;-83
2023/05/06 13:43:24;;;;;;;0.80;0.30;;;;;;;;;;10116330;28;20558;-88
2023/05/06 13:48:27;;;;;;;0.20;0.20;;;;;;;;;;10165878;28;20044;-84
2023/05/06 13:53:31;;;;;;;0.10;0.10;;;;;;;;;;10150011;28;20076;-84
2023/05/06 13:58:35;;;;;;;0.20;0.20;;;;;;;;;;10118688;28;20140;-84
2023/05/06 14:03:39;;;;;;;0.20;0.20;;;;;;;;;;10184138;28;20048;-87
2023/05/06 14:08:42;;;;;;;0.75;0.22;;;;;;;;;;10182587;28;20120;-84
2023/05/06 14:13:47;;;;;;;0.30;0.20;;;;;;;;;;10115974;28;20280;-87
2023/05/06 14:18:51;;;;;;;0.45;0.40;;;;;;;;;;10167792;28;20060;-85
2023/05/06 14:23:54;;;;;;;0.77;0.30;;;;;;;;;;10111667;28;20147;-85
2023/05/06 14:28:59;;;;;;;0.57;0.30;;;;;;;;;;10113026;28;20063;-83
2023/05/06 14:34:02;;;;;;;0.35;0.30;;;;;;;;;;10089875;28;20053;-83
2023/05/06 14:39:06;;;;;;;0.90;0.40;;;;;;;;;;10185270;28;20486;-85
2023/05/06 14:44:11;;;;;;;0.82;0.50;;;;;;;;;;10189157;28;20053;-88
2023/05/06 14:49:15;;;;;;;0.40;0.30;;;;;;;;;;10183091;28;20083;-85
2023/05/06 14:54:18;;;;;;;0.20;0.20;;;;;;;;;;10109301;28;20051;-85
2023/05/06 14:59:23;;;;;;;1.42;0.40;;;;;;;;;;10178778;28;20049;-83
2023/05/06 15:04:27;;;;;;;0.93;0.40;;;;;;;;;;10180536;28;20143;-84
2023/05/06 15:09:30;;;;;;;1.05;0.40;;;;;;;;;;10104560;28;20529;-83
2023/05/06 15:14:36;;;;;;;0.50;0.40;;;;;;;;;;10114857;28;20059;-88
2023/05/06 15:19:41;;;;;;;0.50;0.30;;;;;;;;;;10180845;28;20049;-84
2023/05/06 15:24:45;;;;;;;0.40;0.20;;;;;;;;;;10174148;28;20055;-86
2023/05/06 15:29:50;;;;;;;0.63;0.40;;;;;;;;;;10184884;28;20053;-84
2023/05/06 15:34:53;;;;;;;0.63;0.50;;;;;;;;;;10176575;28;20064;-88
2023/05/06 15:39:57;;;;;;;1.33;0.20;;;;;;;;;;10201856;28;20573;-85
2023/05/06 15:45:02;;;;;;;0.57;0.47;;;;;;;;;;10125695;28;20059;-85
2023/05/06 15:50:08;;;;;;;0.95;0.57;;;;;;;;;;10185613;28;20177;-86
2023/05/06 15:55:16;;;;;;;0.55;0.30;;;;;;;;;;10190100;28;20068;-85
2023/05/06 16:00:21;;;;;;;0.20;0.20;;;;;;;;;;10093495;28;20406;-81
2023/05/06 16:05:24;;;;;;;0.60;0.20;;;;;;;;;;10097151;28;20059;-81
2023/05/06 16:10:27;;;;;;;0.25;0.20;;;;;;;;;;10158216;28;20045;-82
2023/05/06 16:15:34;;;;;;;0.20;0.15;;;;;;;;;;10095928;28;20049;-82
2023/05/06 16:20:37;;;;;;;0.63;0.22;;;;;;;;;;10196986;28;20056;-81
2023/05/06 16:25:41;;;;;;;0.10;0.10;;;;;;;;;;10165577;28;20045;-81
2023/05/06 16:30:46;;;;;;;0.20;0.20;;;;;;;;;;10110903;28;20052;-82
2023/05/06 16:35:49;;;;;;;0.67;0.30;;;;;;;;;;10103329;28;20048;-82
2023/05/06 16:40:53;;;;;;;1.55;0.35;;;;;;;;;;10111247;28;20054;-81
2023/05/06 16:45:57;;;;;;;1.42;0.40;;;;;;;;;;10166181;28;20068;-81
2023/05/06 16:51:01;;;;;;;1.35;0.22;;;;;;;;;;10164653;28;20055;-81
2023/05/06 16:56:05;;;;;;;0.52;0.28;;;;;;;;;;10100661;28;20580;-82
2023/05/06 17:01:11;;;;;;;1.23;0.55;;;;;;;;;;10175000;28;20059;-81
2023/05/06 17:06:15;;;;;;;0.38;0.30;;;;;;;;;;10228001;23;20048;-83
2023/05/06 17:11:18;;;;;;;0.95;0.50;;;;;;;;;;10200632;28;20453;-83
2023/05/06 17:16:23;;;;;;;0.82;0.20;;;;;;;;;;10095392;28;20568;-83
2023/05/06 17:21:26;;;;;;;0.88;0.50;;;;;;;;;;10160431;28;20048;-83
2023/05/06 17:26:32;;;;;;;0.43;0.40;;;;;;;;;;10112017;28;20044;-83
2023/05/06 17:31:37;;;;;;;0.32;0.30;;;;;;;;;;10096578;28;20049;-83
2023/05/06 17:36:41;;;;;;;0.73;0.40;;;;;;;;;;10113119;28;20072;-83
2023/05/06 17:41:44;;;;;;;0.80;0.30;;;;;;;;;;10096132;28;20063;-83
2023/05/06 17:46:49;;;;;;;0.40;0.20;;;;;;;;;;10179518;28;20136;-85
2023/05/06 17:51:54;;;;;;;1.23;0.30;;;;;;;;;;10168598;28;20076;-83
2023/05/06 17:56:59;;;;;;;0.32;0.30;;;;;;;;;;10165482;28;20136;-83
2023/05/06 18:02:07;;;;;;;0.55;0.30;;;;;;;;;;10158601;28;20068;-83
2023/05/06 18:07:11;;;;;;;0.63;0.30;;;;;;;;;;10169563;28;20655;-83
2023/05/06 18:12:14;;;;;;;0.35;0.35;;;;;;;;;;10110415;28;20040;-83
2023/05/06 18:17:18;;;;;;;0.40;0.30;;;;;;;;;;10174295;28;20052;-83
2023/05/06 18:22:22;;;;;;;0.80;0.30;;;;;;;;;;10114599;28;20054;-83
2023/05/06 18:27:28;;;;;;;0.22;0.22;;;;;;;;;;10184864;28;20131;-83
2023/05/06 18:32:33;;;;;;;1.23;0.28;;;;;;;;;;10181462;28;20120;-84
2023/05/06 18:37:37;;;;;;;0.50;0.50;;;;;;;;;;10120629;28;20049;-84
2023/05/06 18:42:40;;;;;;;0.88;0.40;;;;;;;;;;10180985;28;20055;-83
2023/05/06 18:47:45;;;;;;;1.05;0.32;;;;;;;;;;10119281;28;20048;-84
2023/05/06 18:52:49;;;;;;;0.60;0.30;;;;;;;;;;10182155;28;20053;-84
2023/05/06 18:57:52;;;;;;;0.70;0.50;;;;;;;;;;10195234;28;20052;-84
2023/05/06 19:02:57;;;;;;;1.65;0.40;;;;;;;;;;10112293;28;20061;-84
2023/05/06 19:08:00;;;;;;;1.48;0.38;;;;;;;;;;10116530;28;20488;-83
2023/05/06 19:13:03;;;;;;;0.30;0.30;;;;;;;;;;10104013;28;20067;-83
2023/05/06 19:18:08;;;;;;;0.40;0.30;;;;;;;;;;10101288;28;20049;-83
2023/05/06 19:23:12;;;;;;;0.30;0.20;;;;;;;;;;10096018;28;20497;-84
2023/05/06 19:28:18;;;;;;;1.25;0.40;;;;;;;;;;10180344;28;20529;-84
2023/05/06 19:33:23;;;;;;;1.63;0.60;;;;;;;;;;10174195;28;20048;-84
2023/05/06 19:38:26;;;;;;;0.40;0.40;;;;;;;;;;10113425;28;20064;-84
2023/05/06 19:43:31;;;;;;;1.10;0.63;;;;;;;;;;10166134;28;20119;-84
2023/05/06 19:48:37;;;;;;;0.70;0.50;;;;;;;;;;10176095;28;20064;-83
2023/05/06 19:53:40;;;;;;;0.65;0.50;;;;;;;;;;10103723;28;20061;-84
2023/05/06 19:58:44;;;;;;;0.70;0.65;;;;;;;;;;10169184;28;20049;-84
2023/05/06 20:03:48;;;;;;;0.43;0.43;;;;;;;;;;10176277;28;20056;-84
2023/05/06 20:08:52;;;;;;;0.93;0.40;;;;;;;;;;10177506;28;20140;-83
2023/05/06 20:13:57;;;;;;;0.45;0.43;;;;;;;;;;10161626;28;20080;-82
2023/05/06 20:19:01;;;;;;;0.60;0.45;;;;;;;;;;10109015;28;20061;-82
2023/05/06 20:24:05;;;;;;;1.23;0.60;;;;;;;;;;10178563;28;20063;-82
2023/05/06 20:29:08;;;;;;;1.13;0.60;;;;;;;;;;10128243;28;20060;-82
2023/05/06 20:34:14;;;;;;;2.38;0.55;;;;;;;;;;10112381;28;20063;-82
2023/05/06 20:39:19;;;;;;;1.10;0.60;;;;;;;;;;10107463;28;20458;-81
2023/05/06 20:44:23;;;;;;;0.70;0.47;;;;;;;;;;10104595;28;20049;-82
2023/05/06 20:49:29;;;;;;;1.27;0.68;;;;;;;;;;10178810;28;20055;-82
2023/05/06 20:54:32;;;;;;;0.80;0.70;;;;;;;;;;10155482;28;20060;-83
2023/05/06 20:59:36;;;;;;;1.25;0.55;;;;;;;;;;10178186;28;20050;-82
2023/05/06 21:04:41;;;;;;;1.35;0.70;;;;;;;;;;10097821;28;20560;-83
2023/05/06 21:09:44;;;;;;;0.40;0.40;;;;;;;;;;10119649;28;20052;-82
2023/05/06 21:14:48;;;;;;;0.60;0.50;;;;;;;;;;10180191;28;20057;-82
2023/05/06 21:19:52;;;;;;;0.40;0.40;;;;;;;;;;10101816;28;20060;-81
2023/05/06 21:24:56;;;;;;;2.75;1.70;;;;;;;;;;10176129;28;20049;-81
2023/05/06 21:29:59;;;;;;;5.25;2.17;;;;;;;;;;10175817;28;20056;-81
2023/05/06 21:35:07;;;;;;;2.83;2.42;;;;;;;;;;10161432;28;20057;-81
2023/05/06 21:40:12;;;;;;;2.15;1.40;;;;;;;;;;10104234;28;20053;-81
2023/05/06 21:45:16;;;;;;;2.22;0.85;;;;;;;;;;10172081;28;20056;-81
2023/05/06 21:50:20;;;;;;;1.38;0.90;;;;;;;;;;10188415;28;20557;-81
2023/05/06 21:55:26;;;;;;;2.03;0.82;;;;;;;;;;10119711;28;20139;-81
2023/05/06 22:00:29;;;;;;;0.70;0.53;;;;;;;;;;10182959;28;20081;-81
2023/05/06 22:05:34;;;;;;;1.15;0.95;;;;;;;;;;10114082;28;20293;-81
2023/05/06 22:10:38;;;;;;;1.40;0.82;;;;;;;;;;10125176;28;20566;-82
2023/05/06 22:15:42;;;;;;;1.17;0.77;;;;;;;;;;10177607;28;20060;-81
2023/05/06 22:20:48;;;;;;;2.58;0.98;;;;;;;;;;10184603;28;20064;-81
2023/05/06 22:25:51;;;;;;;0.73;0.60;;;;;;;;;;10177194;28;20887;-81
2023/05/06 22:30:54;;;;;;;1.40;0.55;;;;;;;;;;10172259;28;20583;-81
2023/05/06 22:35:59;;;;;;;2.22;0.77;;;;;;;;;;10108135;28;20590;-81
2023/05/06 22:41:02;;;;;;;1.10;0.95;;;;;;;;;;10116609;28;20057;-81
2023/05/06 22:46:06;;;;;;;2.33;0.75;;;;;;;;;;10115951;28;20057;-81
2023/05/06 22:51:11;;;;;;;1.40;0.70;;;;;;;;;;10185972;28;20048;-82
2023/05/06 22:56:14;;;;;;;2.35;0.70;;;;;;;;;;10184530;28;20063;-81
2023/05/06 23:01:18;;;;;;;1.20;0.60;;;;;;;;;;10174020;28;20063;-81
2023/05/06 23:06:22;;;;;;;1.08;0.80;;;;;;;;;;11759925;23;20576;-83
2023/05/06 23:11:26;;;;;;;0.95;0.60;;;;;;;;;;10241283;28;20059;-83
2023/05/06 23:16:29;;;;;;;0.60;0.60;;;;;;;;;;10167970;28;20048;-83
2023/05/06 23:21:34;;;;;;;1.00;0.60;;;;;;;;;;10221973;28;20047;-83
2023/05/06 23:26:37;;;;;;;0.80;0.55;;;;;;;;;;10192344;28;20513;-83
2023/05/06 23:31:40;;;;;;;1.17;0.60;;;;;;;;;;10172506;28;20541;-83
2023/05/06 23:36:45;;;;;;;0.85;0.73;;;;;;;;;;10245528;28;20043;-84
2023/05/06 23:41:48;;;;;;;0.65;0.60;;;;;;;;;;10173461;28;20048;-83
2023/05/06 23:46:52;;;;;;;0.73;0.60;;;;;;;;;;10249888;28;20113;-83
2023/05/06 23:51:56;;;;;;;0.90;0.60;;;;;;;;;;10180356;28;20048;-83
2023/05/06 23:57:00;;;;;;;2.53;0.68;;;;;;;;;;10224925;28;20060;-83
